Weather at Internal Affairs Ministry Dacha Helipad

Public forecast

Using degrees Celsius for public forecast. Weather courtesy of forecast.io.

Closest aviation weather report (METAR) to Internal Affairs Ministry Dacha Helipad

Closest report is Anapa Vityazevo Airport, 150.5 nm (278.8 km) ENE.

2024/02/24 15:00 (retrieved 25 minutes ago)

URKA 241500Z 09005MPS CAVOK 10/03 Q1026 R04/010070 NOSIG RMK QFE765/1020

Closest aviation forecast (TAF) to Internal Affairs Ministry Dacha Helipad

Closest forecast is Anapa Vityazevo Airport, 150.5 nm (278.8 km) ENE.

2024/02/24 15:21 (retrieved 4 minutes ago)

TAF TAF URKA 241351Z 2415/2515 08007G13MPS 9999 SCT030